createdAt,value
2019-04-10T00:03:40.254Z,6.93
2019-04-10T00:08:40.607Z,6.86
2019-04-10T00:13:42.907Z,6.78
2019-04-10T00:18:44.987Z,6.72
2019-04-10T00:23:47.064Z,6.68
2019-04-10T00:28:49.727Z,6.62
2019-04-10T00:33:51.490Z,6.54
2019-04-10T00:38:53.861Z,6.50
2019-04-10T00:43:55.506Z,6.41
2019-04-10T00:48:57.002Z,6.34
2019-04-10T00:53:59.349Z,6.29
2019-04-10T00:59:01.742Z,6.22
2019-04-10T01:04:04.323Z,6.17
2019-04-10T01:09:06.827Z,6.08
2019-04-10T01:14:09.552Z,6.01
2019-04-10T01:19:12.087Z,5.93
2019-04-10T01:24:13.652Z,5.89
2019-04-10T01:29:15.910Z,5.80
2019-04-10T01:34:17.834Z,5.73
2019-04-10T01:39:19.613Z,5.66
2019-04-10T01:44:21.145Z,5.59
2019-04-10T01:49:23.666Z,5.55
2019-04-10T01:54:25.454Z,5.52
2019-04-10T01:59:26.986Z,5.46
2019-04-10T02:04:28.920Z,5.42
2019-04-10T02:09:31.741Z,5.34
2019-04-10T02:14:33.394Z,5.28
2019-04-10T02:19:34.953Z,5.22
2019-04-10T02:24:36.480Z,5.17
2019-04-10T02:29:37.985Z,5.09
2019-04-10T02:34:41.322Z,5.01
2019-04-10T02:39:47.783Z,4.96
2019-04-10T02:44:48.081Z,4.86
2019-04-10T02:49:49.916Z,4.79
2019-04-10T02:54:51.451Z,4.71
2019-04-10T02:59:53.852Z,4.60
2019-04-10T03:04:57.350Z,4.49
2019-04-10T03:10:11.316Z,4.41
2019-04-10T03:15:03.465Z,4.33
2019-04-10T03:20:05.878Z,4.24
2019-04-10T03:25:08.752Z,4.16
2019-04-10T03:30:12.786Z,4.11
2019-04-10T03:35:14.544Z,4.03
2019-04-10T03:40:16.163Z,3.94
2019-04-10T03:45:17.710Z,3.88
2019-04-10T03:50:19.624Z,3.82
2019-04-10T03:55:21.161Z,3.71
2019-04-10T04:00:23.159Z,3.67
2019-04-10T04:05:24.662Z,3.60
2019-04-10T04:10:26.813Z,3.51
2019-04-10T04:15:28.377Z,3.48
2019-04-10T04:20:30.704Z,3.38
2019-04-10T04:25:32.660Z,3.36
2019-04-10T04:30:34.179Z,3.29
2019-04-10T04:35:36.681Z,3.24
2019-04-10T04:40:38.284Z,3.22
2019-04-10T04:45:40.248Z,3.16
2019-04-10T04:50:42.271Z,3.11
2019-04-10T04:55:44.923Z,3.07
2019-04-10T05:00:46.665Z,3.03
2019-04-10T05:05:49.736Z,2.99
2019-04-10T05:10:51.517Z,2.94
2019-04-10T05:15:53.372Z,2.90
2019-04-10T05:20:54.967Z,2.99
2019-04-10T05:25:56.491Z,2.89
2019-04-10T05:30:58.939Z,2.84
2019-04-10T05:36:01.324Z,2.82
2019-04-10T05:41:03.237Z,2.81
2019-04-10T05:46:04.991Z,2.83
2019-04-10T05:51:08.010Z,2.87
2019-04-10T05:56:10.124Z,2.90
2019-04-10T06:01:11.774Z,2.94
2019-04-10T06:06:14.457Z,2.98
2019-04-10T06:11:17.131Z,3.05
2019-04-10T06:16:19.550Z,3.09
2019-04-10T06:21:21.341Z,3.13
2019-04-10T06:26:23.721Z,3.18
2019-04-10T06:31:25.544Z,3.25
2019-04-10T06:36:27.486Z,3.31
2019-04-10T06:41:29.105Z,3.36
2019-04-10T06:46:30.812Z,3.42
2019-04-10T06:51:33.437Z,3.48
2019-04-10T06:56:35.660Z,3.58
2019-04-10T07:01:45.795Z,3.64
2019-04-10T07:06:53.974Z,3.73
2019-04-10T07:11:44.947Z,3.83
2019-04-10T07:16:46.587Z,3.91
2019-04-10T07:21:49.159Z,3.99
2019-04-10T07:26:51.035Z,4.11
2019-04-10T07:31:52.937Z,4.22
2019-04-10T07:36:54.639Z,4.33
2019-04-10T07:41:56.136Z,4.47
2019-04-10T07:46:59.102Z,4.63
2019-04-10T07:52:02.475Z,4.75
2019-04-10T07:57:04.647Z,4.93
2019-04-10T08:02:08.466Z,5.15
2019-04-10T08:07:09.592Z,5.45
2019-04-10T08:12:11.365Z,5.81
2019-04-10T08:17:14.348Z,6.19
2019-04-10T08:22:15.879Z,6.41
2019-04-10T08:27:17.414Z,6.63
2019-04-10T08:32:18.942Z,6.87
2019-04-10T08:37:20.711Z,7.25
2019-04-10T08:42:22.503Z,7.69
2019-04-10T08:47:24.879Z,7.66
2019-04-10T08:52:26.566Z,7.85
2019-04-10T08:57:28.070Z,8.11
2019-04-10T09:02:30.398Z,8.42
2019-04-10T09:07:32.601Z,8.66
2019-04-10T09:12:34.164Z,8.82
2019-04-10T09:17:35.686Z,8.98
2019-04-10T09:22:57.940Z,9.14
2019-04-10T09:27:42.738Z,9.68
2019-04-10T09:32:44.453Z,10.23
2019-04-10T09:37:46.282Z,10.64
2019-04-10T09:42:48.084Z,11.03
2019-04-10T09:47:50.294Z,11.29
2019-04-10T09:52:52.362Z,11.31
2019-04-10T09:57:54.026Z,11.22
2019-04-10T10:03:00.117Z,10.97
2019-04-10T10:08:02.218Z,11.12
2019-04-10T10:13:03.931Z,11.54
2019-04-10T10:18:05.846Z,11.79
2019-04-10T10:23:07.562Z,12.23
2019-04-10T10:28:09.502Z,11.90
2019-04-10T10:33:11.033Z,12.49
2019-04-10T10:38:12.759Z,13.07
2019-04-10T10:43:14.413Z,12.91
2019-04-10T10:48:16.408Z,13.01
2019-04-10T10:53:18.313Z,13.07
2019-04-10T10:58:19.820Z,13.31
2019-04-10T11:03:22.441Z,13.77
2019-04-10T11:08:24.534Z,13.96
2019-04-10T11:13:26.584Z,13.95
2019-04-10T11:18:28.654Z,13.85
2019-04-10T11:23:30.582Z,13.89
2019-04-10T11:28:33.805Z,13.29
2019-04-10T11:33:37.318Z,13.70
2019-04-10T11:38:39.860Z,13.95
2019-04-10T11:43:41.737Z,14.00
2019-04-10T11:48:45.474Z,13.95
2019-04-10T11:53:48.698Z,13.57
2019-04-10T11:58:55.872Z,13.87
2019-04-10T12:03:56.601Z,14.14
2019-04-10T12:09:19.462Z,14.27
2019-04-10T12:14:01.310Z,14.43
2019-04-10T12:19:02.867Z,14.34
2019-04-10T12:24:05.365Z,14.62
2019-04-10T12:29:07.325Z,14.54
2019-04-10T12:34:09.159Z,14.60
2019-04-10T12:39:10.744Z,14.58
2019-04-10T12:44:12.261Z,14.72
2019-04-10T12:49:15.009Z,14.77
2019-04-10T12:54:17.401Z,14.67
2019-04-10T12:59:19.439Z,14.52
2019-04-10T13:04:22.265Z,14.48
2019-04-10T13:09:24.248Z,14.15
2019-04-10T13:14:26.481Z,14.38
2019-04-10T13:19:29.157Z,14.17
2019-04-10T13:24:30.792Z,14.06
2019-04-10T13:29:32.322Z,14.22
2019-04-10T13:34:33.860Z,14.13
2019-04-10T13:39:35.435Z,14.04
2019-04-10T13:44:38.387Z,14.25
2019-04-10T13:49:40.092Z,14.14
2019-04-10T13:54:41.554Z,14.44
2019-04-10T13:59:43.132Z,14.54
2019-04-10T14:04:45.228Z,14.78
2019-04-10T14:09:51.387Z,14.82
2019-04-10T14:14:51.091Z,14.63
2019-04-10T14:19:54.034Z,14.21
2019-04-10T14:24:55.799Z,14.38
2019-04-10T14:29:57.332Z,14.27
2019-04-10T14:34:58.917Z,14.05
2019-04-10T14:40:00.483Z,14.04
2019-04-10T14:45:03.440Z,14.06
2019-04-10T14:50:05.394Z,13.89
2019-04-10T14:55:06.911Z,13.82
2019-04-10T15:00:08.604Z,13.97
2019-04-10T15:05:10.416Z,13.86
2019-04-10T15:10:11.911Z,13.74
2019-04-10T15:15:14.311Z,13.65
2019-04-10T15:20:16.051Z,13.80
2019-04-10T15:25:17.592Z,13.55
2019-04-10T15:30:20.220Z,13.60
2019-04-10T15:35:21.795Z,13.72
2019-04-10T15:40:25.765Z,13.53
2019-04-10T15:45:28.106Z,13.46
2019-04-10T15:50:30.503Z,13.67
2019-04-10T15:55:32.278Z,13.38
2019-04-10T16:00:34.794Z,13.28
2019-04-10T16:05:37.627Z,13.16
2019-04-10T16:10:39.355Z,13.29
2019-04-10T16:15:40.999Z,13.26
2019-04-10T16:20:43.210Z,13.08
2019-04-10T16:25:44.947Z,12.90
2019-04-10T16:30:46.684Z,12.94
2019-04-10T16:35:48.350Z,12.89
2019-04-10T16:40:50.543Z,12.86
2019-04-10T16:45:53.010Z,12.78
2019-04-10T16:50:54.613Z,12.68
2019-04-10T16:55:56.876Z,12.57
2019-04-10T17:00:58.670Z,12.36
2019-04-10T17:06:00.250Z,12.32
2019-04-10T17:11:02.933Z,12.28
2019-04-10T17:16:07.319Z,12.08
2019-04-10T17:21:09.067Z,11.85
2019-04-10T17:26:12.831Z,11.77
2019-04-10T17:31:14.587Z,11.75
2019-04-10T17:36:16.896Z,11.95
2019-04-10T17:41:19.670Z,12.54
2019-04-10T17:46:27.494Z,11.99
2019-04-10T17:51:30.326Z,11.25
2019-04-10T17:56:32.598Z,10.86
2019-04-10T18:01:39.224Z,10.57
2019-04-10T18:06:44.034Z,10.31
2019-04-10T18:11:45.642Z,10.11
2019-04-10T18:16:48.409Z,9.93
2019-04-10T18:21:50.000Z,9.59
2019-04-10T18:26:53.663Z,9.40
2019-04-10T18:31:57.328Z,9.25
2019-04-10T18:36:58.661Z,8.96
2019-04-10T18:42:01.299Z,8.71
2019-04-10T18:47:04.879Z,8.44
2019-04-10T18:52:07.456Z,8.39
2019-04-10T18:57:09.428Z,7.98
2019-04-10T19:02:11.741Z,7.77
2019-04-10T19:07:13.753Z,7.52
2019-04-10T19:12:15.386Z,7.40
2019-04-10T19:17:17.142Z,7.21
2019-04-10T19:22:20.197Z,6.99
2019-04-10T19:27:22.560Z,6.81
2019-04-10T19:32:24.696Z,6.64
2019-04-10T19:37:26.736Z,6.50
2019-04-10T19:42:29.276Z,6.34
2019-04-10T19:47:31.192Z,6.23
2019-04-10T19:52:33.461Z,6.10
2019-04-10T19:57:35.333Z,5.97
2019-04-10T20:02:37.266Z,5.91
2019-04-10T20:07:39.224Z,5.82
2019-04-10T20:12:42.510Z,5.70
2019-04-10T20:17:44.598Z,5.58
2019-04-10T20:22:46.322Z,5.47
2019-04-10T20:27:48.004Z,5.37
2019-04-10T20:32:52.348Z,5.28
2019-04-10T20:37:55.325Z,5.23
2019-04-10T20:42:56.971Z,5.16
2019-04-10T20:47:58.578Z,5.09
2019-04-10T20:53:00.088Z,4.97
2019-04-10T20:58:04.465Z,4.90
2019-04-10T21:03:05.460Z,4.77
2019-04-10T21:08:07.086Z,4.72
2019-04-10T21:13:08.681Z,4.64
2019-04-10T21:18:11.060Z,4.58
2019-04-10T21:23:13.123Z,4.52
2019-04-10T21:28:14.781Z,4.47
2019-04-10T21:33:16.350Z,4.41
2019-04-10T21:38:17.875Z,4.37
2019-04-10T21:43:20.304Z,4.31
2019-04-10T21:48:22.891Z,4.30
2019-04-10T21:53:24.412Z,4.25
2019-04-10T21:58:26.179Z,4.21
2019-04-10T22:03:27.686Z,4.19
2019-04-10T22:08:29.542Z,4.15
2019-04-10T22:13:32.241Z,4.08
2019-04-10T22:18:33.981Z,4.01
2019-04-10T22:23:36.387Z,3.97
2019-04-10T22:28:37.973Z,3.92
2019-04-10T22:33:40.497Z,3.90
2019-04-10T22:38:42.097Z,3.88
2019-04-10T22:43:44.862Z,3.81
2019-04-10T22:48:47.698Z,3.73
2019-04-10T22:53:50.052Z,3.71
2019-04-10T22:58:51.716Z,3.70
2019-04-10T23:03:53.210Z,3.69
2019-04-10T23:08:55.832Z,3.69
2019-04-10T23:13:58.507Z,3.66
2019-04-10T23:19:01.573Z,3.63
2019-04-10T23:24:04.031Z,3.57
2019-04-10T23:29:06.258Z,3.55
2019-04-10T23:34:08.383Z,3.52
2019-04-10T23:39:10.434Z,3.50
2019-04-10T23:44:13.010Z,3.48
2019-04-10T23:49:14.695Z,3.43
2019-04-10T23:54:17.235Z,3.45
2019-04-10T23:59:20.441Z,3.44
